createdAt,value
2023-05-14T00:07:38.621Z,82
2023-05-14T00:17:39.896Z,81
2023-05-14T00:27:41.336Z,81
2023-05-14T00:37:42.745Z,83
2023-05-14T00:47:44.403Z,82
2023-05-14T00:57:46.157Z,82
2023-05-14T01:07:47.868Z,82
2023-05-14T01:17:49.584Z,82
2023-05-14T01:27:51.360Z,82
2023-05-14T01:37:52.750Z,82
2023-05-14T01:47:54.514Z,85
2023-05-14T01:57:55.683Z,85
2023-05-14T02:07:57.499Z,85
2023-05-14T02:17:58.829Z,87
2023-05-14T02:28:00.450Z,85
2023-05-14T02:38:02.087Z,85
2023-05-14T02:48:03.762Z,87
2023-05-14T02:58:05.408Z,86
2023-05-14T03:08:07.444Z,87
2023-05-14T03:18:08.792Z,86
2023-05-14T03:28:10.589Z,87
2023-05-14T03:38:12.621Z,86
2023-05-14T03:48:14.476Z,87
2023-05-14T03:58:16.452Z,87
2023-05-14T04:08:18.402Z,87
2023-05-14T04:18:19.810Z,87
2023-05-14T04:28:21.393Z,87
2023-05-14T04:38:22.625Z,87
2023-05-14T04:48:33.341Z,86
2023-05-14T04:58:35.297Z,86
2023-05-14T05:08:36.131Z,86
2023-05-14T05:18:37.761Z,85
2023-05-14T05:28:39.555Z,86
2023-05-14T05:38:40.875Z,85
2023-05-14T05:58:43.874Z,84
2023-05-14T06:08:45.694Z,83
2023-05-14T06:18:46.804Z,82
2023-05-14T06:28:47.859Z,80
2023-05-14T06:38:49.506Z,79
2023-05-14T06:58:52.231Z,75
2023-05-14T07:08:53.747Z,73
2023-05-14T07:18:55.193Z,71
2023-05-14T07:28:56.366Z,70
2023-05-14T07:38:58.294Z,68
2023-05-14T07:48:59.807Z,67
2023-05-14T07:59:01.154Z,66
2023-05-14T08:09:02.493Z,64
2023-05-14T08:19:04.013Z,63
2023-05-14T08:29:05.741Z,58
2023-05-14T08:49:08.951Z,55
2023-05-14T08:59:10.787Z,55
2023-05-14T09:09:12.852Z,55
2023-05-14T09:19:14.127Z,54
2023-05-14T09:29:15.815Z,53
2023-05-14T09:39:17.714Z,52
2023-05-14T09:49:19.422Z,51
2023-05-14T09:59:21.303Z,48
2023-05-14T10:09:22.367Z,47
2023-05-14T10:19:24.215Z,47
2023-05-14T10:29:25.293Z,47
2023-05-14T10:39:26.710Z,45
2023-05-14T10:49:40.117Z,46
2023-05-14T10:59:30.211Z,44
2023-05-14T11:09:31.774Z,45
2023-05-14T11:19:33.506Z,45
2023-05-14T11:39:36.991Z,44
2023-05-14T11:49:38.157Z,44
2023-05-14T11:59:39.264Z,43
2023-05-14T12:09:42.061Z,40
2023-05-14T12:29:44.433Z,38
2023-05-14T12:39:46.191Z,38
2023-05-14T12:49:48.160Z,36
2023-05-14T12:59:49.637Z,36
2023-05-14T13:09:50.997Z,35
2023-05-14T13:19:52.262Z,39
2023-05-14T13:49:56.331Z,36
2023-05-14T13:59:57.937Z,37
2023-05-14T14:09:59.067Z,36
2023-05-14T14:20:00.662Z,36
2023-05-14T14:50:05.540Z,38
2023-05-14T15:00:07.517Z,38
2023-05-14T15:10:09.116Z,39
2023-05-14T15:20:10.577Z,39
2023-05-14T15:30:12.028Z,39
2023-05-14T15:40:13.460Z,40
2023-05-14T16:00:16.687Z,40
2023-05-14T16:10:18.461Z,41
2023-05-14T16:20:20.449Z,42
2023-05-14T16:30:21.882Z,41
2023-05-14T16:40:22.821Z,42
2023-05-14T16:50:24.405Z,43
2023-05-14T17:00:25.491Z,44
2023-05-14T17:10:27.582Z,44
2023-05-14T17:20:29.400Z,43
2023-05-14T17:30:30.597Z,45
2023-05-14T17:40:32.016Z,45
2023-05-14T17:50:34.135Z,46
2023-05-14T18:00:35.228Z,47
2023-05-14T18:40:40.449Z,52
2023-05-14T19:00:43.357Z,53
2023-05-14T19:20:46.936Z,56
2023-05-14T19:40:50.390Z,55
2023-05-14T19:50:52.068Z,56
2023-05-14T20:00:53.775Z,59
2023-05-14T20:20:56.539Z,60
2023-05-14T20:40:58.943Z,60
2023-05-14T21:01:02.438Z,61
2023-05-14T21:21:05.592Z,65
2023-05-14T21:41:08.496Z,64
2023-05-14T22:01:10.769Z,68
2023-05-14T22:21:13.896Z,67
2023-05-14T22:41:17.810Z,69
2023-05-14T22:51:19.494Z,74
2023-05-14T23:01:21.213Z,74
2023-05-14T23:11:22.773Z,73
2023-05-14T23:31:25.500Z,72
2023-05-14T23:41:27.009Z,72
2023-05-14T23:51:29.047Z,74
